AQQ10 IFIS: Internet Flight Information System
logo dgac
Miércoles 28 de Febrero del 2024
Buscar por aerodromo o helipuerto
Ingrese nombre de aeródromo, localidad o designador OACI:
METAR del 28-02-2024 a las 01:00 UTC
Para mayor información visite www.meteochile.gob.cl
METAR SCIE 280100Z 21008KT 160V260 CAVOK 17/15 Q1015
Viento: dirección 210 grados, velocidad 8 nudos
Viento con dirección variable entre 160 y 260 grados
Visibilidad: 10 km o más,
    sin nubes bajo los 5.000 pies o bajo del MSA (Mínimo de Seguridad del Aeródromo),
    sin cumulonimbus, y sin fenómenos de tiempo significativo en el aeródromo o alrededores
Temperatura: 17 °C
Rocío: 15 °C
Humedad_relativa: 88%
Presión: 1015 hPa
METAR del 28-02-2024 a las 00:00 UTC
Para mayor información visite www.meteochile.gob.cl
METAR SCIE 280000Z 21008KT 180V240 CAVOK 18/13 Q1014
Viento: dirección 210 grados, velocidad 8 nudos
Viento con dirección variable entre 180 y 240 grados
Visibilidad: 10 km o más,
    sin nubes bajo los 5.000 pies o bajo del MSA (Mínimo de Seguridad del Aeródromo),
    sin cumulonimbus, y sin fenómenos de tiempo significativo en el aeródromo o alrededores
Temperatura: 18 °C
Rocío: 13 °C
Humedad_relativa: 73%
Presión: 1014 hPa
METAR del 27-02-2024 a las 23:00 UTC
Para mayor información visite www.meteochile.gob.cl
METAR SCIE 272300Z 22010KT CAVOK 18/13 Q1014
Viento: dirección 220 grados, velocidad 10 nudos
Visibilidad: 10 km o más,
    sin nubes bajo los 5.000 pies o bajo del MSA (Mínimo de Seguridad del Aeródromo),
    sin cumulonimbus, y sin fenómenos de tiempo significativo en el aeródromo o alrededores
Temperatura: 18 °C
Rocío: 13 °C
Humedad_relativa: 73%
Presión: 1014 hPa
METAR del 27-02-2024 a las 22:00 UTC
Para mayor información visite www.meteochile.gob.cl
METAR SCIE 272200Z 23015KT CAVOK 20/13 Q1014
Viento: dirección 230 grados, velocidad 15 nudos
Visibilidad: 10 km o más,
    sin nubes bajo los 5.000 pies o bajo del MSA (Mínimo de Seguridad del Aeródromo),
    sin cumulonimbus, y sin fenómenos de tiempo significativo en el aeródromo o alrededores
Temperatura: 20 °C
Rocío: 13 °C
Humedad_relativa: 64%
Presión: 1014 hPa
METAR del 27-02-2024 a las 21:00 UTC
Para mayor información visite www.meteochile.gob.cl
METAR SCIE 272100Z 23014KT CAVOK 21/12 Q1014
Viento: dirección 230 grados, velocidad 14 nudos
Visibilidad: 10 km o más,
    sin nubes bajo los 5.000 pies o bajo del MSA (Mínimo de Seguridad del Aeródromo),
    sin cumulonimbus, y sin fenómenos de tiempo significativo en el aeródromo o alrededores
Temperatura: 21 °C
Rocío: 12 °C
Humedad_relativa: 56%
Presión: 1014 hPa
METAR del 27-02-2024 a las 20:00 UTC
Para mayor información visite www.meteochile.gob.cl
METAR SCIE 272000Z 23013KT CAVOK 22/12 Q1014
Viento: dirección 230 grados, velocidad 13 nudos
Visibilidad: 10 km o más,
    sin nubes bajo los 5.000 pies o bajo del MSA (Mínimo de Seguridad del Aeródromo),
    sin cumulonimbus, y sin fenómenos de tiempo significativo en el aeródromo o alrededores
Temperatura: 22 °C
Rocío: 12 °C
Humedad_relativa: 53%
Presión: 1014 hPa
METAR del 27-02-2024 a las 19:00 UTC
Para mayor información visite www.meteochile.gob.cl
METAR SCIE 271900Z 23014KT CAVOK 22/12 Q1014
Viento: dirección 230 grados, velocidad 14 nudos
Visibilidad: 10 km o más,
    sin nubes bajo los 5.000 pies o bajo del MSA (Mínimo de Seguridad del Aeródromo),
    sin cumulonimbus, y sin fenómenos de tiempo significativo en el aeródromo o alrededores
Temperatura: 22 °C
Rocío: 12 °C
Humedad_relativa: 53%
Presión: 1014 hPa
METAR del 27-02-2024 a las 18:00 UTC
Para mayor información visite www.meteochile.gob.cl
METAR SCIE 271800Z 22013KT 190V250 CAVOK 22/12 Q1015
Viento: dirección 220 grados, velocidad 13 nudos
Viento con dirección variable entre 190 y 250 grados
Visibilidad: 10 km o más,
    sin nubes bajo los 5.000 pies o bajo del MSA (Mínimo de Seguridad del Aeródromo),
    sin cumulonimbus, y sin fenómenos de tiempo significativo en el aeródromo o alrededores
Temperatura: 22 °C
Rocío: 12 °C
Humedad_relativa: 53%
Presión: 1015 hPa
METAR del 27-02-2024 a las 17:00 UTC
Para mayor información visite www.meteochile.gob.cl
METAR SCIE 271700Z 23012KT 190V260 CAVOK 22/12 Q1015
Viento: dirección 230 grados, velocidad 12 nudos
Viento con dirección variable entre 190 y 260 grados
Visibilidad: 10 km o más,
    sin nubes bajo los 5.000 pies o bajo del MSA (Mínimo de Seguridad del Aeródromo),
    sin cumulonimbus, y sin fenómenos de tiempo significativo en el aeródromo o alrededores
Temperatura: 22 °C
Rocío: 12 °C
Humedad_relativa: 53%
Presión: 1015 hPa
METAR del 27-02-2024 a las 16:00 UTC
Para mayor información visite www.meteochile.gob.cl
METAR SCIE 271600Z 23011KT 200V260 CAVOK 20/12 Q1015
Viento: dirección 230 grados, velocidad 11 nudos
Viento con dirección variable entre 200 y 260 grados
Visibilidad: 10 km o más,
    sin nubes bajo los 5.000 pies o bajo del MSA (Mínimo de Seguridad del Aeródromo),
    sin cumulonimbus, y sin fenómenos de tiempo significativo en el aeródromo o alrededores
Temperatura: 20 °C
Rocío: 12 °C
Humedad_relativa: 60%
Presión: 1015 hPa